»·PEaware :: SWA291 KTUS-KSNA

SWA291 :: KTUS-KSNA

FLIGHT INFORMATION

Flight Status: Arrived
Operator:
Southwest Airlines
More flights by this operator :: More flights under this callsign
Pilot: Dave P. (45)
Aircraft: BOEING 737-600
(B736)
More flights by this aircraft type
Origin: KTUS Tucson Intl
United States
Destination: KSNA John Wayne-Orange Co
United States
More flights between these airports :: More routes between these airports
Route: +BURRO4 GBN J104 CULTS HRRBR EMLLD DSNEE4
File this flight plan on PilotEdge
Remarks: RMK / SIMBRIEF
Altitude:
(Current/Filed)
32,000ft
Speed:
(Current/Filed)
457kts
Departed: 31-Oct-20 07:31 AM
Arrived: 31-Oct-20 08:37 AM
Distance/Time
Traveled:
361nm/1:06
Distance/Time
To Go:
Arrived

Flight Plot

Page will automatically refresh every two minutes.

Flight plan parsing failed; only flown route is shown


Map Options




Map Legend


Flown Route
Filed Route
Departure Airport
Arrival Airport
Navaid (VOR, NDB)
Fix

Horizontal Profiles

Position Reports

Time Latitude Longitude Heading Altitude Ground
Speed
31-Oct-20 07:08 32.121572 -110.941389 135 2651ft 0kts
31-Oct-20 07:09 32.121572 -110.941389 135 2651ft 0kts
31-Oct-20 07:10 32.121572 -110.941389 135 2651ft 0kts
31-Oct-20 07:11 32.121572 -110.941389 135 2651ft 0kts
31-Oct-20 07:12 32.121572 -110.941389 135 2651ft 0kts
31-Oct-20 07:13 32.121572 -110.941389 135 2651ft 0kts
31-Oct-20 07:14 32.121572 -110.941389 135 2651ft 0kts
31-Oct-20 07:15 32.121572 -110.941389 135 2651ft 0kts
31-Oct-20 07:16 32.121572 -110.941389 135 2651ft 0kts
31-Oct-20 07:17 32.121572 -110.941389 135 2651ft 0kts
31-Oct-20 07:18 32.121572 -110.941389 135 2651ft 0kts
31-Oct-20 07:19 32.121572 -110.941389 135 2651ft 0kts
31-Oct-20 07:20 32.121572 -110.941389 135 2651ft 0kts
31-Oct-20 07:21 32.121572 -110.941389 135 2651ft 0kts
31-Oct-20 07:22 32.121572 -110.941389 135 2651ft 0kts
31-Oct-20 07:23 32.121613 -110.941436 135 2651ft 2kts
31-Oct-20 07:24 32.122060 -110.941771 215 2651ft 0kts
31-Oct-20 07:25 32.122060 -110.941771 215 2651ft 0kts
31-Oct-20 07:26 32.122060 -110.941772 215 2651ft 0kts
31-Oct-20 07:27 32.120346 -110.942709 293 2651ft 12kts
31-Oct-20 07:28 32.123469 -110.946444 316 2651ft 14kts
31-Oct-20 07:29 32.123503 -110.947408 223 2651ft 8kts
31-Oct-20 07:30 32.118010 -110.941626 134 2651ft 93kts
31-Oct-20 07:31 32.091490 -110.909730 135 3758ft 148kts
31-Oct-20 07:32 32.054264 -110.868698 150 4811ft 221kts
31-Oct-20 07:33 31.997148 -110.903715 238 6757ft 283kts
31-Oct-20 07:34 31.966815 -110.986526 283 10062ft 296kts
31-Oct-20 07:35 32.018298 -111.071089 300 12373ft 352kts
31-Oct-20 07:36 32.068490 -111.175192 298 15362ft 373kts
31-Oct-20 07:37 32.136606 -111.272067 309 18098ft 392kts
31-Oct-20 07:38 32.211484 -111.369533 308 20860ft 408kts
31-Oct-20 07:39 32.287611 -111.471955 301 23267ft 419kts
31-Oct-20 07:40 32.352773 -111.587408 298 25430ft 428kts
31-Oct-20 07:41 32.419544 -111.706877 298 27369ft 439kts
31-Oct-20 07:42 32.487696 -111.828443 299 29183ft 445kts
31-Oct-20 07:43 32.555401 -111.948962 297 31531ft 436kts
31-Oct-20 07:44 32.622515 -112.069352 297 32152ft 435kts
31-Oct-20 07:45 32.689054 -112.189159 297 32157ft 434kts
31-Oct-20 07:46 32.755298 -112.308829 297 32154ft 434kts
31-Oct-20 07:47 32.821664 -112.428561 297 32148ft 434kts
31-Oct-20 07:48 32.887633 -112.548800 297 32145ft 434kts
31-Oct-20 07:49 32.954181 -112.669105 300 32144ft 437kts
31-Oct-20 07:50 33.035145 -112.778632 306 32146ft 441kts
31-Oct-20 07:51 33.117399 -112.887578 306 32146ft 441kts
31-Oct-20 07:52 33.199405 -112.996391 306 32145ft 442kts
31-Oct-20 07:53 33.281790 -113.105294 306 32144ft 441kts
31-Oct-20 07:55 33.363506 -113.214536 306 32143ft 441kts
31-Oct-20 07:56 33.445422 -113.324469 306 32137ft 441kts
31-Oct-20 07:57 33.527181 -113.434240 306 32131ft 441kts
31-Oct-20 07:58 33.591260 -113.555547 283 32130ft 426kts
31-Oct-20 07:59 33.618390 -113.693283 278 32124ft 424kts
31-Oct-20 08:00 33.643790 -113.831422 279 32152ft 425kts
31-Oct-20 08:01 33.688263 -113.964446 290 32150ft 430kts
31-Oct-20 08:02 33.738453 -114.095029 290 32143ft 431kts
31-Oct-20 08:03 33.768380 -114.232684 274 32138ft 423kts
31-Oct-20 08:04 33.784324 -114.372964 274 32133ft 424kts
31-Oct-20 08:05 33.800370 -114.513511 274 32124ft 425kts
31-Oct-20 08:06 33.817131 -114.654303 274 32124ft 426kts
31-Oct-20 08:07 33.832936 -114.795437 274 32125ft 426kts
31-Oct-20 08:08 33.848741 -114.937482 274 32131ft 428kts
31-Oct-20 08:09 33.864388 -115.079617 274 32136ft 430kts
31-Oct-20 08:09 33.877375 -115.198954 274 32144ft 431kts
31-Oct-20 08:11 33.896121 -115.365780 274 32155ft 433kts
31-Oct-20 08:11 33.908972 -115.486037 274 32163ft 434kts
31-Oct-20 08:13 33.926744 -115.654530 274 32177ft 435kts
31-Oct-20 08:13 33.935213 -115.775240 272 32183ft 435kts
31-Oct-20 08:15 33.947329 -115.944519 272 32184ft 435kts
31-Oct-20 08:15 33.955537 -116.065461 272 29966ft 435kts
31-Oct-20 08:16 33.962858 -116.203750 266 27404ft 418kts
31-Oct-20 08:17 33.947951 -116.338605 260 25503ft 388kts
31-Oct-20 08:18 33.932430 -116.464901 260 23335ft 377kts
31-Oct-20 08:19 33.916961 -116.588281 260 21185ft 367kts
31-Oct-20 08:20 33.901437 -116.707880 260 19115ft 355kts
31-Oct-20 08:21 33.887690 -116.824253 262 16907ft 349kts
31-Oct-20 08:22 33.875192 -116.938867 262 14773ft 342kts
31-Oct-20 08:23 33.862617 -117.052093 262 13055ft 346kts
31-Oct-20 08:24 33.850960 -117.159903 262 11654ft 349kts
31-Oct-20 08:25 33.838430 -117.270370 262 10214ft 310kts
31-Oct-20 08:26 33.827852 -117.362827 262 9028ft 287kts
31-Oct-20 08:27 33.816516 -117.452379 255 7939ft 257kts
31-Oct-20 08:28 33.804958 -117.533703 282 6951ft 241kts
31-Oct-20 08:29 33.822491 -117.610692 292 5773ft 229kts
31-Oct-20 08:30 33.842884 -117.672511 292 4901ft 196kts
31-Oct-20 08:31 33.852622 -117.733251 239 3108ft 192kts
31-Oct-20 08:32 33.817421 -117.780045 216 2880ft 184kts
31-Oct-20 08:33 33.771710 -117.807971 207 2025ft 180kts
31-Oct-20 08:34 33.731267 -117.833603 207 1144ft 149kts
31-Oct-20 08:35 33.697629 -117.854939 208 422ft 130kts
31-Oct-20 08:36 33.670377 -117.872182 191 64ft 23kts
31-Oct-20 08:37 33.670566 -117.869432 40 64ft 12kts
31-Oct-20 08:38 33.674221 -117.866403 27 64ft 15kts
31-Oct-20 08:39 33.675348 -117.864879 117 64ft 0kts
31-Oct-20 08:40 33.675335 -117.864850 117 64ft 0kts
31-Oct-20 08:41 33.675335 -117.864850 117 64ft 0kts
31-Oct-20 08:42 33.675335 -117.864850 117 64ft 0kts

Navigation Log

Ident Type
Flight plan parsing failed, navigation log unavailable